Time;durP1;ratioP1;P1;durP2;ratioP2;P2;SDS_P1;SDS_P2;PMS_P1;PMS_P2;Temp;Humidity;BMP_temperature;BMP_pressure;BME280_temperature;BME280_humidity;BME280_pressure;Samples;Min_cycle;Max_cycle;Signal;HPM_P1;HPM_P2
2023/06/09 00:03:01;;;;;;;4.50;2.50;;;23.10;78.70;;;;;;10928815;32;20057;-74
2023/06/09 00:09:04;;;;;;;4.53;2.12;;;23.10;78.90;;;;;;10942313;32;20027;-75
2023/06/09 00:15:07;;;;;;;5.20;3.40;;;23.00;78.90;;;;;;10945640;32;20049;-74
2023/06/09 00:21:10;;;;;;;5.95;2.72;;;22.80;79.00;;;;;;10945246;32;20019;-74
2023/06/09 00:27:12;;;;;;;8.25;3.37;;;22.70;79.30;;;;;;10944255;32;20023;-74
2023/06/09 00:33:15;;;;;;;4.10;3.12;;;22.70;79.50;;;;;;10944581;32;20019;-74
2023/06/09 00:39:17;;;;;;;8.90;3.67;;;22.80;79.40;;;;;;10944758;32;20046;-75
2023/06/09 00:45:19;;;;;;;4.85;3.12;;;22.90;80.10;;;;;;10944538;32;20018;-74
2023/06/09 00:51:21;;;;;;;5.95;3.83;;;22.90;80.10;;;;;;10944322;32;20442;-74
2023/06/09 00:57:24;;;;;;;3.78;2.50;;;22.80;80.00;;;;;;10940047;32;20023;-75
2023/06/09 01:03:53;;;;;;;4.80;2.80;;;22.70;80.10;;;;;;10943924;32;20023;-75
2023/06/09 01:10:23;;;;;;;9.23;4.32;;;22.70;79.90;;;;;;10930173;32;20018;-74
2023/06/09 01:16:40;;;;;;;6.30;4.07;;;22.60;80.00;;;;;;10940787;32;20022;-75
2023/06/09 01:23:27;;;;;;;9.23;3.87;;;22.60;79.70;;;;;;10940096;32;20057;-75
2023/06/09 01:29:32;;;;;;;4.45;2.75;;;22.60;79.40;;;;;;10925989;32;20405;-75
2023/06/09 01:35:35;;;;;;;6.10;3.92;;;22.40;79.80;;;;;;10942625;32;20038;-75
2023/06/09 01:41:37;;;;;;;5.72;4.40;;;22.30;79.80;;;;;;10929428;32;20054;-75
2023/06/09 01:47:45;;;;;;;5.25;3.75;;;22.20;79.90;;;;;;10939574;32;20023;-75
2023/06/09 01:53:58;;;;;;;4.00;2.28;;;22.20;80.00;;;;;;10942285;32;20388;-75
2023/06/09 02:00:04;;;;;;;6.53;3.95;;;22.20;80.00;;;;;;10928646;32;20042;-75
2023/06/09 02:06:19;;;;;;;5.28;3.72;;;22.10;80.10;;;;;;10942043;32;20007;-75
2023/06/09 02:12:20;;;;;;;7.43;5.00;;;22.20;79.90;;;;;;10941850;32;20022;-75
2023/06/09 02:18:22;;;;;;;5.70;4.43;;;22.30;79.70;;;;;;10941353;32;20019;-75
2023/06/09 02:24:27;;;;;;;6.05;3.80;;;22.30;79.70;;;;;;10941641;32;20027;-75
2023/06/09 02:30:30;;;;;;;4.40;3.30;;;22.20;79.70;;;;;;10940334;32;20041;-75
2023/06/09 02:36:32;;;;;;;6.15;4.35;;;22.30;80.20;;;;;;10941259;32;20042;-75
2023/06/09 02:42:34;;;;;;;6.70;4.70;;;22.20;80.10;;;;;;10939826;32;20027;-75
2023/06/09 02:48:36;;;;;;;5.03;3.60;;;22.10;80.30;;;;;;10942905;32;20019;-75
2023/06/09 02:55:00;;;;;;;5.43;3.65;;;22.20;80.20;;;;;;10946316;32;20393;-75
2023/06/09 03:01:02;;;;;;;5.25;3.78;;;22.10;80.20;;;;;;10932240;32;20054;-75
2023/06/09 03:07:04;;;;;;;8.88;5.25;;;22.00;80.20;;;;;;10948138;32;20451;-75
2023/06/09 03:13:06;;;;;;;5.53;4.05;;;22.00;80.10;;;;;;10944797;32;20031;-75
2023/06/09 03:19:10;;;;;;;6.85;4.47;;;21.90;80.10;;;;;;10947599;32;20027;-74
2023/06/09 03:25:13;;;;;;;5.12;3.90;;;21.80;80.30;;;;;;10944134;32;20432;-75
2023/06/09 03:31:15;;;;;;;6.37;4.78;;;21.90;80.20;;;;;;10930300;32;20365;-75
2023/06/09 03:37:17;;;;;;;5.80;4.00;;;22.00;80.20;;;;;;10943754;32;20062;-75
2023/06/09 03:43:19;;;;;;;5.93;4.25;;;22.00;80.20;;;;;;10946839;32;20053;-75
2023/06/09 03:49:25;;;;;;;8.90;5.50;;;21.90;80.00;;;;;;10932762;32;20026;-75
2023/06/09 03:55:31;;;;;;;6.85;4.82;;;22.00;80.00;;;;;;10933623;32;20046;-75
2023/06/09 04:01:33;;;;;;;6.30;4.62;;;21.90;80.20;;;;;;10942717;32;20027;-75
2023/06/09 04:07:35;;;;;;;6.40;4.72;;;21.90;80.40;;;;;;10942057;32;20105;-76
2023/06/09 04:13:39;;;;;;;7.28;5.70;;;21.90;80.40;;;;;;10929019;32;20432;-75
2023/06/09 04:19:42;;;;;;;6.07;4.35;;;21.80;80.40;;;;;;10942248;32;20050;-75
2023/06/09 04:25:46;;;;;;;5.43;3.60;;;21.80;80.60;;;;;;10941918;32;20046;-76
2023/06/09 04:31:53;;;;;;;6.53;3.97;;;21.80;80.50;;;;;;10928165;32;20023;-75
2023/06/09 04:38:12;;;;;;;10.27;5.03;;;21.80;80.70;;;;;;10941207;32;20396;-75
2023/06/09 04:44:15;;;;;;;6.28;4.07;;;21.90;80.80;;;;;;10944771;32;20032;-75
2023/06/09 04:50:18;;;;;;;6.55;4.25;;;22.10;81.00;;;;;;10931199;32;20441;-75
2023/06/09 04:56:20;;;;;;;7.32;5.25;;;22.10;81.40;;;;;;10928580;32;20026;-75
2023/06/09 05:02:23;;;;;;;5.60;3.90;;;22.10;81.50;;;;;;10941487;32;20427;-75
2023/06/09 05:08:25;;;;;;;6.03;4.25;;;22.10;81.40;;;;;;10943829;32;20045;-75
2023/06/09 05:14:27;;;;;;;7.25;4.85;;;22.20;81.50;;;;;;10943395;32;20047;-75
2023/06/09 05:20:30;;;;;;;5.22;3.67;;;22.20;81.50;;;;;;10940255;32;20030;-75
2023/06/09 05:26:32;;;;;;;6.78;4.65;;;22.30;81.30;;;;;;10939805;32;20023;-75
2023/06/09 05:32:35;;;;;;;5.65;3.50;;;22.30;81.20;;;;;;10940382;32;20027;-75
2023/06/09 05:38:38;;;;;;;13.62;4.78;;;22.40;81.10;;;;;;10924348;32;20436;-75
2023/06/09 05:44:40;;;;;;;7.15;3.97;;;22.60;81.20;;;;;;10925193;32;20026;-74
2023/06/09 05:50:42;;;;;;;6.68;3.70;;;22.50;81.70;;;;;;10938279;32;20030;-74
2023/06/09 05:56:48;;;;;;;5.57;3.80;;;22.60;82.10;;;;;;10942249;32;20046;-74
2023/06/09 06:02:53;;;;;;;4.50;3.15;;;22.70;82.40;;;;;;10927796;32;20531;-74
2023/06/09 06:08:56;;;;;;;6.12;3.78;;;22.70;82.50;;;;;;10925679;32;20053;-75
2023/06/09 06:14:58;;;;;;;11.05;4.32;;;22.80;82.50;;;;;;10939686;32;20088;-74
2023/06/09 06:21:00;;;;;;;4.87;3.53;;;22.70;82.10;;;;;;10939588;32;20431;-74
2023/06/09 06:27:03;;;;;;;4.20;3.05;;;22.70;82.20;;;;;;10947494;32;20049;-74
2023/06/09 06:33:07;;;;;;;4.95;3.55;;;22.70;82.10;;;;;;10947926;32;20023;-74
2023/06/09 06:39:11;;;;;;;4.28;2.55;;;22.70;82.10;;;;;;10931814;32;20404;-74
2023/06/09 06:45:14;;;;;;;3.97;2.72;;;22.70;82.00;;;;;;10948421;32;20023;-74
2023/06/09 06:51:16;;;;;;;6.25;3.37;;;22.70;81.90;;;;;;10927905;32;20401;-74
2023/06/09 06:57:18;;;;;;;9.02;2.92;;;22.90;81.60;;;;;;10922027;32;20066;-74
2023/06/09 07:03:20;;;;;;;4.45;2.67;;;23.00;81.10;;;;;;10947879;32;20046;-74
2023/06/09 07:09:24;;;;;;;8.10;2.85;;;23.10;80.90;;;;;;10948092;32;20101;-74
2023/06/09 07:15:26;;;;;;;7.70;4.32;;;23.30;80.70;;;;;;10945620;32;20042;-74
2023/06/09 07:21:31;;;;;;;6.45;2.92;;;23.30;80.90;;;;;;10933692;32;20092;-73
2023/06/09 07:27:33;;;;;;;4.32;2.67;;;23.50;80.70;;;;;;10975557;27;20034;-74
2023/06/09 07:33:37;;;;;;;7.47;5.03;;;23.70;80.90;;;;;;11020677;32;20041;-74
2023/06/09 07:39:39;;;;;;;7.70;4.20;;;23.70;80.40;;;;;;11022598;32;20019;-74
2023/06/09 07:45:41;;;;;;;3.25;1.70;;;23.80;80.30;;;;;;11022554;32;20024;-73
2023/06/09 07:51:46;;;;;;;6.97;3.42;;;23.80;80.10;;;;;;11008277;32;20045;-73
2023/06/09 07:57:48;;;;;;;6.28;4.37;;;23.90;79.50;;;;;;11022010;32;20026;-75
2023/06/09 08:03:50;;;;;;;7.05;3.55;;;24.10;79.20;;;;;;11021821;32;20314;-76
2023/06/09 08:09:52;;;;;;;7.07;4.20;;;24.20;79.40;;;;;;11018256;32;20056;-76
2023/06/09 08:15:54;;;;;;;5.62;3.50;;;24.30;79.30;;;;;;11021611;32;20057;-73
2023/06/09 08:21:57;;;;;;;6.07;4.47;;;24.40;79.30;;;;;;11021364;32;20078;-73
2023/06/09 08:27:59;;;;;;;8.45;4.43;;;24.50;78.80;;;;;;11017091;32;20018;-73
2023/06/09 08:34:01;;;;;;;6.70;4.35;;;24.70;78.00;;;;;;11019827;32;20348;-73
2023/06/09 08:40:07;;;;;;;7.68;5.40;;;24.80;77.50;;;;;;11020099;32;20030;-74
2023/06/09 08:46:11;;;;;;;9.00;5.32;;;24.90;77.40;;;;;;11005242;32;20041;-73
2023/06/09 08:52:13;;;;;;;7.35;5.00;;;24.90;77.20;;;;;;11020271;32;20334;-74
2023/06/09 08:58:15;;;;;;;7.30;4.65;;;25.00;76.30;;;;;;11020087;32;20040;-75
2023/06/09 09:04:18;;;;;;;8.32;4.87;;;25.00;75.40;;;;;;11005224;32;20348;-74
2023/06/09 09:10:20;;;;;;;6.82;4.75;;;25.10;75.00;;;;;;11019349;32;20022;-74
2023/06/09 09:16:32;;;;;;;7.07;5.18;;;25.30;74.60;;;;;;11010502;32;20431;-74
2023/06/09 09:22:50;;;;;;;6.40;4.40;;;25.40;73.80;;;;;;11012966;32;20033;-74
2023/06/09 09:28:55;;;;;;;5.18;3.83;;;25.40;73.30;;;;;;11018020;32;20022;-74
2023/06/09 09:34:58;;;;;;;12.00;6.80;;;25.50;73.40;;;;;;11003662;32;20010;-75
2023/06/09 09:41:00;;;;;;;7.70;5.10;;;25.80;72.80;;;;;;11018574;32;20044;-75
2023/06/09 09:47:05;;;;;;;9.75;5.62;;;25.90;72.20;;;;;;11004231;32;20102;-74
2023/06/09 09:53:07;;;;;;;10.02;6.47;;;25.80;71.10;;;;;;11018233;32;20378;-75
2023/06/09 09:59:09;;;;;;;6.60;4.20;;;25.80;72.00;;;;;;11016577;32;20014;-74
2023/06/09 10:05:14;;;;;;;9.32;5.53;;;26.00;71.80;;;;;;11017726;32;20041;-74
2023/06/09 10:11:17;;;;;;;10.00;6.65;;;26.20;70.90;;;;;;11015281;32;20013;-73
2023/06/09 10:17:23;;;;;;;9.82;6.93;;;26.30;70.80;;;;;;11003153;32;20080;-73
2023/06/09 10:23:27;;;;;;;10.68;5.43;;;26.60;70.30;;;;;;11017257;32;20014;-72
2023/06/09 10:29:29;;;;;;;9.45;6.68;;;26.60;69.90;;;;;;11013254;32;20050;-72
2023/06/09 10:35:33;;;;;;;11.68;8.23;;;26.70;69.60;;;;;;11003168;32;20049;-73
2023/06/09 10:41:41;;;;;;;8.23;5.30;;;26.90;68.60;;;;;;11017100;32;20014;-71
2023/06/09 10:47:45;;;;;;;9.93;7.80;;;27.00;68.50;;;;;;11016411;32;20018;-71
2023/06/09 10:54:10;;;;;;;9.85;7.07;;;27.30;67.70;;;;;;10969163;32;20035;-74
2023/06/09 11:00:13;;;;;;;10.40;7.80;;;27.30;67.30;;;;;;10978322;32;20102;-73
2023/06/09 11:06:15;;;;;;;10.75;6.50;;;27.60;67.00;;;;;;11015870;32;20022;-73
2023/06/09 11:12:24;;;;;;;9.80;7.68;;;27.80;66.70;;;;;;11014090;32;20070;-72
2023/06/09 11:18:27;;;;;;;8.05;5.70;;;28.20;65.80;;;;;;10982279;32;20066;-74
2023/06/09 11:24:48;;;;;;;10.52;7.62;;;28.40;66.10;;;;;;11006957;32;20084;-74
2023/06/09 11:31:02;;;;;;;11.07;8.63;;;28.30;66.60;;;;;;11019782;32;20040;-73
2023/06/09 11:37:05;;;;;;;9.07;7.10;;;28.30;66.10;;;;;;11008441;32;20018;-73
2023/06/09 11:43:09;;;;;;;9.02;6.75;;;28.60;65.90;;;;;;11022008;32;20026;-73
2023/06/09 11:49:11;;;;;;;8.70;6.60;;;28.90;64.50;;;;;;11022348;32;20026;-73
2023/06/09 11:55:15;;;;;;;9.05;7.10;;;29.00;64.30;;;;;;11007900;32;20030;-72
2023/06/09 12:01:19;;;;;;;9.38;6.90;;;28.40;65.00;;;;;;11010163;32;20042;-73
2023/06/09 12:07:21;;;;;;;7.32;5.85;;;28.60;64.60;;;;;;11021878;32;20023;-73
2023/06/09 12:13:23;;;;;;;7.03;5.22;;;28.70;64.00;;;;;;11021703;32;20022;-74
2023/06/09 12:19:27;;;;;;;10.00;7.45;;;28.40;64.70;;;;;;11021208;32;20022;-73
2023/06/09 12:25:32;;;;;;;10.85;8.73;;;28.30;64.80;;;;;;11017912;32;20150;-73
2023/06/09 12:31:47;;;;;;;10.48;7.53;;;28.40;64.50;;;;;;11020919;32;20006;-74
2023/06/09 12:37:49;;;;;;;12.60;8.32;;;28.50;63.90;;;;;;11020809;32;20072;-74
2023/06/09 12:43:58;;;;;;;8.70;7.12;;;28.40;64.30;;;;;;11020521;32;20057;-74
2023/06/09 12:50:01;;;;;;;24.92;21.90;;;28.40;64.10;;;;;;10989791;32;20321;-71
2023/06/09 12:56:06;;;;;;;10.20;7.07;;;28.80;63.30;;;;;;11020081;32;20022;-73
2023/06/09 13:02:08;;;;;;;10.90;8.77;;;28.80;63.20;;;;;;11019896;32;20049;-74
2023/06/09 13:08:10;;;;;;;11.10;8.95;;;28.60;62.40;;;;;;11016646;32;20022;-72
2023/06/09 13:14:12;;;;;;;8.63;6.18;;;28.30;63.20;;;;;;11019446;32;20076;-72
2023/06/09 13:20:15;;;;;;;16.87;11.75;;;28.40;64.10;;;;;;11019020;32;20423;-74
2023/06/09 13:26:17;;;;;;;10.35;8.20;;;28.60;63.10;;;;;;11000540;32;20453;-74
2023/06/09 13:32:19;;;;;;;9.57;7.37;;;28.60;62.70;;;;;;11017862;32;20473;-74
2023/06/09 13:38:21;;;;;;;13.13;5.68;;;28.80;62.60;;;;;;11014613;32;20031;-74
2023/06/09 13:44:24;;;;;;;7.90;6.47;;;28.90;62.10;;;;;;10991771;32;20042;-73
2023/06/09 13:50:26;;;;;;;10.88;8.70;;;28.90;61.90;;;;;;11018337;32;20022;-73
2023/06/09 13:56:28;;;;;;;9.95;8.85;;;29.00;61.80;;;;;;10988563;32;20060;-73
2023/06/09 14:02:31;;;;;;;8.68;5.55;;;29.00;62.20;;;;;;11014035;32;20070;-73
2023/06/09 14:08:33;;;;;;;14.38;5.93;;;28.80;62.30;;;;;;11015037;32;20026;-74
2023/06/09 14:14:35;;;;;;;9.95;8.35;;;28.80;62.40;;;;;;11017743;32;20052;-74
2023/06/09 14:20:43;;;;;;;7.45;5.35;;;28.80;62.60;;;;;;10987538;32;20057;-73
2023/06/09 14:26:48;;;;;;;8.75;6.85;;;28.60;62.60;;;;;;10938011;32;20429;-73
2023/06/09 14:32:51;;;;;;;14.35;7.03;;;28.70;62.80;;;;;;10938346;32;20208;-73
2023/06/09 14:38:53;;;;;;;9.32;6.95;;;28.70;62.80;;;;;;10933647;32;20041;-73
2023/06/09 14:44:55;;;;;;;8.35;6.82;;;28.70;64.50;;;;;;10939538;32;20035;-73
2023/06/09 14:50:57;;;;;;;8.77;6.18;;;28.60;64.40;;;;;;10945012;32;20046;-73
2023/06/09 14:56:59;;;;;;;8.20;6.68;;;28.80;64.20;;;;;;10944751;32;20545;-73
2023/06/09 15:03:02;;;;;;;12.60;8.52;;;28.80;64.00;;;;;;10991792;32;20053;-73
2023/06/09 15:09:05;;;;;;;8.50;5.87;;;28.80;63.80;;;;;;11020744;32;20392;-74
2023/06/09 15:15:08;;;;;;;9.73;7.80;;;28.70;63.90;;;;;;11023204;32;20018;-73
2023/06/09 15:21:10;;;;;;;11.35;10.15;;;28.80;64.00;;;;;;11019338;32;20041;-74
2023/06/09 15:27:12;;;;;;;16.27;11.75;;;28.80;64.80;;;;;;11009583;26;20057;-74
2023/06/09 15:33:20;;;;;;;10.18;8.27;;;28.70;65.50;;;;;;10984683;32;20014;-74
2023/06/09 15:39:22;;;;;;;12.48;7.55;;;28.70;67.50;;;;;;10984312;32;20019;-74
2023/06/09 15:45:27;;;;;;;12.32;6.55;;;28.60;66.80;;;;;;10984277;32;20023;-74
2023/06/09 15:51:29;;;;;;;10.90;6.70;;;28.50;66.90;;;;;;10984121;32;20333;-74
2023/06/09 15:57:32;;;;;;;7.03;4.87;;;28.30;69.90;;;;;;10983649;32;20018;-74
2023/06/09 16:03:35;;;;;;;10.18;6.85;;;28.30;69.90;;;;;;10983638;32;20048;-73
2023/06/09 16:09:37;;;;;;;6.93;4.85;;;28.50;69.20;;;;;;10966507;32;20073;-73
2023/06/09 16:15:42;;;;;;;7.95;6.20;;;28.40;68.70;;;;;;10970184;32;20443;-74
2023/06/09 16:21:44;;;;;;;7.55;5.87;;;28.40;68.90;;;;;;10957012;32;20034;-74
2023/06/09 16:27:47;;;;;;;5.07;3.78;;;28.40;69.50;;;;;;10967562;32;20018;-73
2023/06/09 16:33:49;;;;;;;7.80;3.95;;;28.60;68.90;;;;;;10981170;32;20026;-74
2023/06/09 16:39:51;;;;;;;10.02;5.50;;;28.60;68.40;;;;;;10982429;32;20317;-73
2023/06/09 16:45:54;;;;;;;8.00;3.53;;;28.60;68.70;;;;;;10981211;32;20052;-73
2023/06/09 16:51:58;;;;;;;6.18;3.95;;;28.40;68.30;;;;;;10982021;32;20010;-74
2023/06/09 16:58:00;;;;;;;7.57;4.87;;;28.40;68.60;;;;;;10978681;32;20080;-74
2023/06/09 17:04:02;;;;;;;6.30;4.35;;;28.20;70.00;;;;;;10981594;32;20096;-75
2023/06/09 17:10:05;;;;;;;5.60;4.18;;;28.00;70.90;;;;;;10964002;32;20034;-75
2023/06/09 17:16:08;;;;;;;5.25;3.92;;;28.00;70.90;;;;;;10967350;32;20022;-75
2023/06/09 17:22:10;;;;;;;7.60;4.22;;;28.00;70.90;;;;;;10964102;32;20074;-76
2023/06/09 17:28:12;;;;;;;6.12;3.55;;;27.90;70.60;;;;;;10963581;32;20404;-74
2023/06/09 17:34:15;;;;;;;6.20;3.55;;;27.80;70.60;;;;;;10977046;32;20044;-73
2023/06/09 17:40:17;;;;;;;6.40;4.47;;;27.80;70.20;;;;;;10966142;32;20044;-74
2023/06/09 17:46:19;;;;;;;5.87;3.92;;;27.80;69.90;;;;;;10976113;32;20026;-75
2023/06/09 17:52:22;;;;;;;5.50;3.50;;;27.70;70.60;;;;;;10953864;32;20022;-73
2023/06/09 17:58:24;;;;;;;5.60;3.50;;;27.60;71.40;;;;;;10979033;32;20041;-74
2023/06/09 18:04:26;;;;;;;6.50;3.33;;;27.60;71.10;;;;;;10976939;32;20046;-74
2023/06/09 18:10:29;;;;;;;7.32;4.53;;;27.40;70.80;;;;;;10979782;32;20041;-75
2023/06/09 18:16:31;;;;;;;5.18;3.65;;;27.30;71.70;;;;;;10965509;32;20356;-73
2023/06/09 18:22:33;;;;;;;5.00;3.55;;;27.20;72.40;;;;;;10979085;32;20030;-72
2023/06/09 18:28:36;;;;;;;4.55;3.15;;;27.00;73.10;;;;;;10979239;32;20408;-72
2023/06/09 18:34:38;;;;;;;3.97;2.72;;;27.00;73.60;;;;;;10979142;32;20436;-72
2023/06/09 18:40:40;;;;;;;8.68;3.85;;;26.80;73.60;;;;;;10979158;32;20444;-72
2023/06/09 18:46:43;;;;;;;6.07;3.87;;;26.80;74.00;;;;;;10978958;32;20038;-72
2023/06/09 18:52:45;;;;;;;7.03;4.05;;;26.70;74.70;;;;;;10963842;32;20061;-72
2023/06/09 18:58:47;;;;;;;6.20;4.80;;;26.60;74.60;;;;;;10976916;32;20050;-72
2023/06/09 19:04:49;;;;;;;4.43;3.25;;;26.60;74.50;;;;;;10961441;32;20019;-72
2023/06/09 19:10:52;;;;;;;5.20;3.97;;;26.50;74.80;;;;;;10944706;32;20313;-72
2023/06/09 19:16:55;;;;;;;4.82;2.97;;;26.40;75.40;;;;;;10974120;32;20022;-72
2023/06/09 19:22:57;;;;;;;7.18;4.18;;;26.40;75.90;;;;;;10975930;32;20376;-72
2023/06/09 19:28:59;;;;;;;6.28;4.55;;;26.30;76.30;;;;;;10978332;32;20049;-72
2023/06/09 19:35:01;;;;;;;7.18;5.47;;;26.30;76.80;;;;;;10968468;32;20022;-71
2023/06/09 19:41:04;;;;;;;7.82;5.72;;;26.20;77.00;;;;;;10984852;32;20041;-72
2023/06/09 19:47:06;;;;;;;6.60;5.07;;;26.10;77.60;;;;;;10983278;32;20022;-71
2023/06/09 19:53:08;;;;;;;9.55;6.82;;;25.90;78.00;;;;;;10984543;32;20015;-71
2023/06/09 19:59:11;;;;;;;5.82;4.57;;;25.80;78.20;;;;;;10962768;32;20061;-74
2023/06/09 20:05:13;;;;;;;6.45;4.43;;;25.70;78.50;;;;;;10977534;32;20026;-74
2023/06/09 20:11:15;;;;;;;4.47;3.08;;;25.60;78.20;;;;;;10983645;32;20096;-75
2023/06/09 20:17:18;;;;;;;3.33;2.12;;;25.30;77.80;;;;;;10969224;32;20049;-76
2023/06/09 20:23:21;;;;;;;3.67;2.28;;;25.20;77.10;;;;;;10981741;32;20062;-76
2023/06/09 20:29:23;;;;;;;2.58;1.60;;;25.20;76.40;;;;;;10978918;32;20019;-75
2023/06/09 20:35:25;;;;;;;3.28;2.30;;;25.10;76.00;;;;;;10983078;32;20010;-76
2023/06/09 20:41:28;;;;;;;3.80;2.05;;;25.00;75.70;;;;;;10981257;32;20332;-77
2023/06/09 20:47:31;;;;;;;2.78;2.00;;;24.90;75.10;;;;;;10968589;32;20084;-74
2023/06/09 20:53:33;;;;;;;1.55;1.15;;;24.90;75.80;;;;;;10982279;32;20049;-74
2023/06/09 20:59:36;;;;;;;4.40;2.00;;;25.00;76.90;;;;;;10981841;32;20014;-74
2023/06/09 21:05:38;;;;;;;3.08;1.48;;;25.20;77.60;;;;;;10981840;32;20388;-74
2023/06/09 21:11:41;;;;;;;5.22;1.67;;;25.20;77.90;;;;;;10977462;32;20505;-74
2023/06/09 21:17:43;;;;;;;2.78;1.55;;;25.10;78.20;;;;;;10980299;32;20019;-76
2023/06/09 21:23:45;;;;;;;5.28;2.55;;;24.90;78.30;;;;;;10979196;32;20022;-75
2023/06/09 21:29:48;;;;;;;3.60;2.10;;;24.50;77.80;;;;;;10979725;32;20011;-74
2023/06/09 21:35:50;;;;;;;2.50;1.70;;;24.10;78.50;;;;;;10966952;32;20057;-72
2023/06/09 21:41:52;;;;;;;4.15;2.40;;;24.00;78.90;;;;;;10978780;32;20027;-75
2023/06/09 21:47:54;;;;;;;2.22;1.23;;;23.70;78.20;;;;;;10980401;32;20015;-72
2023/06/09 21:53:56;;;;;;;3.05;1.45;;;23.60;78.70;;;;;;10978745;32;20061;-74
2023/06/09 21:59:59;;;;;;;4.78;2.47;;;23.50;78.90;;;;;;10978998;32;20022;-74
2023/06/09 22:06:01;;;;;;;4.43;3.08;;;23.50;79.30;;;;;;10979798;32;20329;-73
2023/06/09 22:12:05;;;;;;;5.70;3.90;;;23.50;80.00;;;;;;10978105;32;20310;-73
2023/06/09 22:18:07;;;;;;;6.00;3.53;;;23.30;80.50;;;;;;10965724;32;20053;-74
2023/06/09 22:24:11;;;;;;;4.70;2.37;;;23.10;81.40;;;;;;10979451;32;20439;-74
2023/06/09 22:30:13;;;;;;;2.95;1.55;;;23.30;81.50;;;;;;10979285;32;20038;-73
2023/06/09 22:36:37;;;;;;;8.30;2.72;;;23.50;80.90;;;;;;10979318;32;20023;-73
2023/06/09 22:42:40;;;;;;;6.93;2.83;;;23.70;80.70;;;;;;10964925;32;20325;-75
2023/06/09 22:48:42;;;;;;;4.25;2.30;;;23.50;81.40;;;;;;10979305;32;20336;-74
2023/06/09 22:54:43;;;;;;;3.10;2.12;;;23.60;81.80;;;;;;10978647;32;20041;-74
2023/06/09 23:00:45;;;;;;;5.68;2.00;;;23.70;81.60;;;;;;10966105;32;20027;-74
2023/06/09 23:07:06;;;;;;;5.43;3.25;;;23.70;81.80;;;;;;10980744;32;20038;-75
2023/06/09 23:13:08;;;;;;;3.17;2.37;;;23.30;80.80;;;;;;10984051;32;20026;-74
2023/06/09 23:19:10;;;;;;;4.20;2.58;;;23.00;81.20;;;;;;10984154;32;20037;-74
2023/06/09 23:25:12;;;;;;;5.12;3.00;;;23.00;81.40;;;;;;10309224;32;21915704;-74
2023/06/09 23:31:14;;;;;;;1.73;1.45;;;23.30;81.10;;;;;;10944431;32;20100;-74
2023/06/09 23:37:20;;;;;;;9.35;2.28;;;23.20;81.00;;;;;;10940732;32;20026;-74
2023/06/09 23:43:22;;;;;;;2.95;2.12;;;23.20;81.00;;;;;;10943355;32;20092;-74
2023/06/09 23:49:25;;;;;;;3.72;2.22;;;23.20;81.20;;;;;;10943577;32;20039;-74
2023/06/09 23:55:27;;;;;;;5.03;2.80;;;23.30;81.30;;;;;;10979600;32;20053;-74
